createdAt,value
2019-05-11T00:00:07.793Z,62.83
2019-05-11T00:02:37.069Z,61.83
2019-05-11T00:05:06.363Z,58.50
2019-05-11T00:07:35.627Z,59.77
2019-05-11T00:10:05.436Z,57.63
2019-05-11T00:12:34.726Z,57.37
2019-05-11T00:15:03.999Z,57.37
2019-05-11T00:17:33.294Z,59.47
2019-05-11T00:20:02.967Z,57.10
2019-05-11T00:22:32.451Z,58.30
2019-05-11T00:25:01.730Z,49.07
2019-05-11T00:27:31.270Z,47.20
2019-05-11T00:30:00.549Z,48.27
2019-05-11T00:32:29.878Z,44.00
2019-05-11T00:34:59.157Z,42.40
2019-05-11T00:37:28.411Z,43.60
2019-05-11T00:40:12.062Z,44.43
2019-05-11T00:42:28.728Z,46.40
2019-05-11T00:44:57.988Z,47.53
2019-05-11T00:47:27.279Z,42.80
2019-05-11T00:49:56.534Z,41.50
2019-05-11T00:52:25.805Z,43.37
2019-05-11T00:54:55.084Z,42.40
2019-05-11T00:57:24.407Z,47.73
2019-05-11T00:59:53.670Z,48.17
2019-05-11T01:02:23.022Z,47.47
2019-05-11T01:04:52.353Z,41.90
2019-05-11T01:07:21.657Z,42.10
2019-05-11T01:09:50.997Z,46.27
2019-05-11T01:12:20.269Z,46.83
2019-05-11T01:14:49.558Z,46.47
2019-05-11T01:17:18.838Z,43.23
2019-05-11T01:19:48.105Z,45.93
2019-05-11T01:22:17.405Z,42.20
2019-05-11T01:24:46.681Z,44.00
2019-05-11T01:27:15.934Z,43.27
2019-05-11T01:29:45.230Z,39.73
2019-05-11T01:32:14.495Z,39.67
2019-05-11T01:34:43.762Z,37.77
2019-05-11T01:37:13.073Z,41.77
2019-05-11T01:39:42.402Z,38.97
2019-05-11T01:42:11.656Z,40.13
2019-05-11T01:44:40.930Z,39.50
2019-05-11T01:47:10.211Z,39.33
2019-05-11T01:49:39.477Z,34.90
2019-05-11T01:52:08.763Z,35.37
2019-05-11T01:54:38.028Z,35.97
2019-05-11T01:57:07.427Z,32.77
2019-05-11T01:59:36.713Z,33.23
2019-05-11T02:02:05.997Z,33.83
2019-05-11T02:04:35.319Z,32.70
2019-05-11T02:07:04.695Z,31.13
2019-05-11T02:09:33.970Z,34.97
2019-05-11T02:12:03.278Z,34.23
2019-05-11T02:14:32.578Z,41.27
2019-05-11T02:17:01.842Z,42.23
2019-05-11T02:19:31.126Z,38.40
2019-05-11T02:22:00.402Z,43.13
2019-05-11T02:24:29.586Z,38.53
2019-05-11T02:26:58.859Z,40.13
2019-05-11T02:29:28.121Z,34.10
2019-05-11T02:31:57.499Z,39.90
2019-05-11T02:34:26.760Z,37.50
2019-05-11T02:36:56.011Z,39.60
2019-05-11T02:39:25.299Z,41.37
2019-05-11T02:41:54.652Z,36.40
2019-05-11T02:44:23.950Z,37.13
2019-05-11T02:46:53.212Z,39.67
2019-05-11T02:49:22.582Z,37.27
2019-05-11T02:51:52.037Z,38.97
2019-05-11T02:54:21.291Z,39.03
2019-05-11T02:56:50.593Z,39.73
2019-05-11T02:59:19.923Z,37.93
2019-05-11T03:01:49.287Z,37.93
2019-05-11T03:04:18.636Z,35.23
2019-05-11T03:06:47.961Z,35.43
2019-05-11T03:09:17.247Z,30.70
2019-05-11T03:11:55.493Z,33.07
2019-05-11T03:14:17.516Z,31.27
2019-05-11T03:16:48.367Z,31.60
2019-05-11T03:19:17.631Z,31.47
2019-05-11T03:21:46.919Z,29.37
2019-05-11T03:24:16.319Z,31.70
2019-05-11T03:26:45.655Z,32.50
2019-05-11T03:29:14.927Z,30.87
2019-05-11T03:31:44.179Z,30.70
2019-05-11T03:34:13.483Z,31.10
2019-05-11T03:36:42.818Z,27.50
2019-05-11T03:39:12.076Z,29.17
2019-05-11T03:41:41.370Z,28.50
2019-05-11T03:44:10.633Z,25.73
2019-05-11T03:46:39.967Z,31.30
2019-05-11T03:49:09.250Z,30.27
2019-05-11T03:51:38.510Z,29.53
2019-05-11T03:54:07.854Z,32.67
2019-05-11T03:56:37.126Z,32.07
2019-05-11T03:59:06.394Z,32.93
2019-05-11T04:01:35.674Z,37.30
2019-05-11T04:04:04.937Z,37.00
2019-05-11T04:06:34.214Z,32.17
2019-05-11T04:09:05.024Z,33.80
2019-05-11T04:11:34.385Z,33.87
2019-05-11T04:14:03.652Z,31.37
2019-05-11T04:16:33.005Z,31.07
2019-05-11T04:19:02.360Z,28.70
2019-05-11T04:21:31.655Z,36.70
2019-05-11T04:24:01.014Z,31.27
2019-05-11T04:26:30.279Z,32.07
2019-05-11T04:28:59.542Z,30.83
2019-05-11T04:31:28.798Z,26.57
2019-05-11T04:33:58.079Z,26.93
2019-05-11T04:36:27.371Z,28.83
2019-05-11T04:38:56.669Z,26.73
2019-05-11T04:41:25.928Z,23.37
2019-05-11T04:43:55.183Z,22.43
2019-05-11T04:46:24.462Z,29.97
2019-05-11T04:48:53.842Z,26.47
2019-05-11T04:51:23.100Z,26.70
2019-05-11T04:53:52.381Z,30.47
2019-05-11T04:56:21.735Z,25.37
2019-05-11T04:58:51.070Z,26.27
2019-05-11T05:01:20.365Z,26.27
2019-05-11T05:03:54.221Z,24.00
2019-05-11T05:06:23.988Z,24.10
2019-05-11T05:08:51.829Z,21.67
2019-05-11T05:11:21.095Z,22.93
2019-05-11T05:13:53.429Z,25.07
2019-05-11T05:16:21.387Z,21.67
2019-05-11T05:18:50.725Z,24.27
2019-05-11T05:21:20.020Z,22.83
2019-05-11T05:23:49.291Z,26.03
2019-05-11T05:26:18.550Z,21.93
2019-05-11T05:28:47.887Z,21.67
2019-05-11T05:31:17.255Z,24.30
2019-05-11T05:33:46.556Z,22.90
2019-05-11T05:36:15.950Z,20.93
2019-05-11T05:38:45.233Z,20.57
2019-05-11T05:41:14.568Z,19.60
2019-05-11T05:43:43.863Z,19.87
2019-05-11T05:46:13.146Z,18.87
2019-05-11T05:48:42.474Z,16.20
2019-05-11T05:51:11.748Z,16.03
2019-05-11T05:53:41.014Z,16.50
2019-05-11T05:56:10.278Z,17.00
2019-05-11T05:58:39.562Z,21.30
2019-05-11T06:01:10.172Z,17.90
2019-05-11T06:03:39.773Z,23.10
2019-05-11T06:06:09.050Z,21.47
2019-05-11T06:08:38.314Z,20.27
2019-05-11T06:11:07.598Z,20.03
2019-05-11T06:13:45.131Z,18.97
2019-05-11T06:16:07.914Z,19.03
2019-05-11T06:18:37.182Z,20.17
2019-05-11T06:21:06.440Z,19.77
2019-05-11T06:23:35.774Z,18.40
2019-05-11T06:26:05.036Z,19.87
2019-05-11T06:28:34.402Z,16.43
2019-05-11T06:31:03.784Z,14.43
2019-05-11T06:33:34.235Z,16.20
2019-05-11T06:36:03.531Z,14.73
2019-05-11T06:38:32.829Z,14.00
2019-05-11T06:41:02.230Z,15.20
2019-05-11T06:43:31.562Z,12.00
2019-05-11T06:46:00.834Z,13.53
2019-05-11T06:48:30.141Z,12.43
2019-05-11T06:50:59.391Z,12.57
2019-05-11T06:53:28.734Z,13.40
2019-05-11T06:55:58.098Z,12.33
2019-05-11T06:58:27.378Z,13.83
2019-05-11T07:00:56.646Z,9.90
2019-05-11T07:03:25.897Z,10.47
2019-05-11T07:05:55.241Z,9.80
2019-05-11T07:08:24.569Z,11.17
2019-05-11T07:10:53.872Z,9.40
2019-05-11T07:13:23.146Z,10.33
2019-05-11T07:15:52.434Z,10.30
2019-05-11T07:18:21.777Z,9.77
2019-05-11T07:20:51.193Z,10.40
2019-05-11T07:23:20.547Z,9.93
2019-05-11T07:25:49.882Z,13.87
2019-05-11T07:28:19.182Z,11.20
2019-05-11T07:30:48.493Z,16.07
2019-05-11T07:33:18.351Z,10.87
2019-05-11T07:35:47.973Z,9.27
2019-05-11T07:38:18.402Z,13.13
2019-05-11T07:40:47.958Z,10.87
2019-05-11T07:43:18.807Z,9.53
2019-05-11T07:45:48.637Z,13.23
2019-05-11T07:48:18.646Z,9.70
2019-05-11T07:50:48.295Z,9.10
2019-05-11T07:53:18.585Z,12.07
2019-05-11T07:55:48.618Z,13.27
2019-05-11T07:58:20.305Z,9.70
2019-05-11T08:00:49.050Z,9.40
2019-05-11T08:03:18.341Z,7.67
2019-05-11T08:05:47.971Z,6.17
2019-05-11T08:08:18.094Z,4.27
2019-05-11T08:10:48.326Z,4.92
2019-05-11T08:13:17.937Z,4.12
2019-05-11T08:15:48.806Z,3.83
2019-05-11T08:18:19.020Z,2.45
2019-05-11T08:20:48.487Z,2.45
2019-05-11T08:23:18.159Z,4.12
2019-05-11T08:25:48.579Z,5.25
2019-05-11T08:28:18.430Z,7.78
2019-05-11T08:30:48.604Z,3.83
2019-05-11T08:33:18.321Z,7.70
2019-05-11T08:35:48.210Z,3.65
2019-05-11T08:38:18.131Z,6.60
2019-05-11T08:40:48.590Z,5.08
2019-05-11T08:43:18.137Z,5.78
2019-05-11T08:45:48.564Z,5.83
2019-05-11T08:48:18.735Z,4.20
2019-05-11T08:50:48.956Z,3.05
2019-05-11T08:53:18.394Z,3.77
2019-05-11T08:55:48.535Z,5.20
2019-05-11T08:58:19.381Z,5.53
2019-05-11T09:00:49.894Z,4.05
2019-05-11T09:03:19.451Z,4.00
2019-05-11T09:05:48.793Z,3.65
2019-05-11T09:08:18.771Z,3.67
2019-05-11T09:10:48.983Z,3.25
2019-05-11T09:13:18.735Z,3.40
2019-05-11T09:15:48.474Z,3.22
2019-05-11T09:18:18.754Z,3.55
2019-05-11T09:20:48.741Z,5.25
2019-05-11T09:23:32.457Z,3.55
2019-05-11T09:25:49.243Z,3.95
2019-05-11T09:28:18.538Z,5.90
2019-05-11T09:30:48.370Z,3.75
2019-05-11T09:33:20.692Z,5.50
2019-05-11T09:35:53.064Z,5.22
2019-05-11T09:38:19.865Z,4.30
2019-05-11T09:40:49.177Z,4.17
2019-05-11T09:43:18.481Z,4.83
2019-05-11T09:45:49.313Z,5.03
2019-05-11T09:48:18.822Z,4.83
2019-05-11T09:50:48.247Z,3.62
2019-05-11T09:53:17.860Z,6.37
2019-05-11T09:55:48.103Z,4.03
2019-05-11T09:58:19.834Z,4.55
2019-05-11T10:00:48.591Z,11.45
2019-05-11T10:03:18.636Z,2.98
2019-05-11T10:05:48.780Z,4.00
2019-05-11T10:08:18.431Z,2.90
2019-05-11T10:10:48.805Z,3.10
2019-05-11T10:13:18.678Z,3.85
2019-05-11T10:16:01.003Z,3.40
2019-05-11T10:18:19.065Z,3.70
2019-05-11T10:20:48.422Z,4.60
2019-05-11T10:23:18.553Z,5.22
2019-05-11T10:25:48.229Z,4.28
2019-05-11T10:28:17.998Z,3.67
2019-05-11T10:30:48.683Z,5.05
2019-05-11T10:33:18.791Z,3.02
2019-05-11T10:35:48.497Z,3.15
2019-05-11T10:38:18.243Z,3.42
2019-05-11T10:40:48.126Z,5.22
2019-05-11T10:43:18.359Z,6.58
2019-05-11T10:45:48.464Z,3.35
2019-05-11T10:48:17.932Z,5.42
2019-05-11T10:50:48.389Z,5.85
2019-05-11T10:53:18.622Z,3.85
2019-05-11T10:55:48.114Z,3.20
2019-05-11T10:58:18.459Z,3.58
2019-05-11T11:00:48.212Z,4.95
2019-05-11T11:03:18.047Z,2.65
2019-05-11T11:05:48.784Z,3.62
2019-05-11T11:08:18.684Z,4.45
2019-05-11T11:10:48.507Z,4.00
2019-05-11T11:13:18.794Z,5.62
2019-05-11T11:15:48.599Z,4.90
2019-05-11T11:18:18.886Z,3.30
2019-05-11T11:20:48.967Z,4.03
2019-05-11T11:23:18.403Z,3.87
2019-05-11T11:25:48.134Z,3.57
2019-05-11T11:28:17.664Z,2.80
2019-05-11T11:30:48.063Z,3.43
2019-05-11T11:33:18.395Z,4.17
2019-05-11T11:35:47.930Z,3.47
2019-05-11T11:38:18.069Z,3.90
2019-05-11T11:40:48.227Z,2.53
2019-05-11T11:43:18.173Z,4.57
2019-05-11T11:45:49.553Z,4.17
2019-05-11T11:48:19.020Z,3.03
2019-05-11T11:50:48.392Z,3.27
2019-05-11T11:53:18.773Z,3.10
2019-05-11T11:55:48.355Z,3.57
2019-05-11T11:58:23.079Z,2.67
2019-05-11T12:00:48.691Z,3.30
2019-05-11T12:03:18.522Z,5.00
2019-05-11T12:05:48.043Z,2.80
2019-05-11T12:08:18.826Z,2.97
2019-05-11T12:10:48.577Z,3.03
2019-05-11T12:13:19.248Z,5.37
2019-05-11T12:15:52.497Z,5.27
2019-05-11T12:19:05.376Z,2.70
2019-05-11T12:21:30.882Z,3.00
2019-05-11T12:24:18.727Z,4.70
2019-05-11T12:26:58.813Z,3.47
2019-05-11T12:29:28.171Z,4.33
2019-05-11T12:32:00.058Z,3.43
2019-05-11T12:34:29.324Z,2.80
2019-05-11T12:36:59.743Z,2.77
2019-05-11T12:39:28.996Z,2.90
2019-05-11T12:41:58.418Z,2.17
2019-05-11T12:44:30.758Z,2.57
2019-05-11T12:47:00.022Z,3.87
2019-05-11T12:49:29.365Z,3.03
2019-05-11T12:51:58.645Z,3.57
2019-05-11T12:54:28.172Z,5.70
2019-05-11T12:56:58.076Z,2.13
2019-05-11T12:59:27.953Z,3.00
2019-05-11T13:01:59.052Z,2.87
2019-05-11T13:04:28.589Z,3.53
2019-05-11T13:06:58.285Z,4.83
2019-05-11T13:09:28.776Z,2.43
2019-05-11T13:12:00.360Z,2.77
2019-05-11T13:14:31.570Z,2.83
2019-05-11T13:17:03.106Z,5.07
2019-05-11T13:19:35.239Z,3.00
2019-05-11T13:22:07.959Z,3.17
2019-05-11T13:24:40.966Z,3.43
2019-05-11T13:27:10.218Z,5.47
2019-05-11T13:29:42.322Z,2.37
2019-05-11T13:32:11.978Z,2.60
2019-05-11T13:34:41.373Z,3.07
2019-05-11T13:37:12.454Z,3.57
2019-05-11T13:39:41.760Z,3.43
2019-05-11T13:42:11.215Z,4.92
2019-05-11T13:44:40.461Z,2.70
2019-05-11T13:47:09.721Z,2.70
2019-05-11T13:49:39.590Z,3.60
2019-05-11T13:52:08.842Z,2.50
2019-05-11T13:54:38.098Z,3.67
2019-05-11T13:57:08.021Z,2.00
2019-05-11T13:59:38.478Z,6.23
2019-05-11T14:02:10.908Z,4.20
2019-05-11T14:04:39.399Z,2.23
2019-05-11T14:07:08.678Z,2.83
2019-05-11T14:09:40.076Z,2.70
2019-05-11T14:12:09.633Z,3.67
2019-05-11T14:14:38.889Z,3.77
2019-05-11T14:17:08.408Z,3.00
2019-05-11T14:19:39.033Z,2.30
2019-05-11T14:22:08.782Z,3.50
2019-05-11T14:24:38.214Z,3.10
2019-05-11T14:27:08.518Z,2.33
2019-05-11T14:29:38.605Z,2.53
2019-05-11T14:32:08.666Z,3.70
2019-05-11T14:34:38.728Z,4.83
2019-05-11T14:37:08.905Z,3.03
2019-05-11T14:39:38.528Z,3.10
2019-05-11T14:42:07.993Z,3.30
2019-05-11T14:44:40.351Z,5.50
2019-05-11T14:47:12.762Z,2.43
2019-05-11T14:49:42.033Z,2.90
2019-05-11T14:52:11.362Z,7.40
2019-05-11T14:54:40.647Z,2.93
2019-05-11T14:57:11.958Z,3.63
2019-05-11T14:59:41.259Z,2.33
2019-05-11T15:02:29.460Z,3.03
2019-05-11T15:04:59.437Z,4.03
2019-05-11T15:07:28.842Z,3.87
2019-05-11T15:10:18.696Z,3.27
2019-05-11T15:12:51.348Z,2.73
2019-05-11T15:15:20.984Z,2.80
2019-05-11T15:17:51.816Z,5.87
2019-05-11T15:33:38.039Z,3.50
2019-05-11T15:36:09.658Z,4.65
2019-05-11T15:38:38.941Z,3.07
2019-05-11T15:41:08.461Z,3.93
2019-05-11T15:43:38.752Z,6.77
2019-05-11T15:46:08.257Z,4.90
2019-05-11T15:48:53.264Z,2.70
2019-05-11T15:51:08.553Z,3.77
2019-05-11T15:53:37.806Z,3.30
2019-05-11T15:56:08.607Z,2.20
2019-05-11T15:58:38.264Z,3.33
2019-05-11T16:01:08.054Z,3.43
2019-05-11T16:03:37.537Z,3.10
2019-05-11T16:06:07.892Z,3.07
2019-05-11T16:08:37.696Z,4.00
2019-05-11T16:11:08.323Z,2.20
2019-05-11T16:13:37.971Z,3.23
2019-05-11T16:16:07.461Z,3.97
2019-05-11T16:18:36.813Z,2.57
2019-05-11T16:21:07.658Z,2.50
2019-05-11T16:23:38.898Z,4.70
2019-05-11T16:26:09.726Z,5.80
2019-05-11T16:28:39.073Z,4.03
2019-05-11T16:31:09.237Z,2.07
2019-05-11T16:33:38.818Z,3.80
2019-05-11T16:36:09.043Z,5.43
2019-05-11T16:38:38.581Z,2.40
2019-05-11T16:41:09.120Z,4.67
2019-05-11T16:43:38.674Z,3.37
2019-05-11T16:46:08.678Z,2.87
2019-05-11T16:48:38.407Z,5.73
2019-05-11T16:51:08.614Z,3.53
2019-05-11T16:53:39.020Z,7.13
2019-05-11T16:56:08.639Z,4.63
2019-05-11T16:58:40.924Z,3.17
2019-05-11T17:01:09.013Z,3.23
2019-05-11T17:03:38.571Z,2.50
2019-05-11T17:06:08.454Z,5.93
2019-05-11T17:08:38.337Z,6.20
2019-05-11T17:11:08.360Z,4.57
2019-05-11T17:13:38.153Z,3.57
2019-05-11T17:16:08.723Z,4.40
2019-05-11T17:18:38.350Z,3.77
2019-05-11T17:21:07.953Z,6.27
2019-05-11T17:23:38.354Z,4.67
2019-05-11T17:26:08.774Z,5.37
2019-05-11T17:28:38.619Z,4.73
2019-05-11T17:31:08.274Z,4.13
2019-05-11T17:33:38.524Z,5.73
2019-05-11T17:36:08.546Z,8.13
2019-05-11T17:38:38.913Z,4.33
2019-05-11T17:41:09.765Z,6.07
2019-05-11T17:43:39.106Z,5.47
2019-05-11T17:46:08.454Z,5.30
2019-05-11T17:48:38.814Z,5.00
2019-05-11T17:51:20.428Z,8.63
2019-05-11T17:53:39.305Z,5.03
2019-05-11T17:56:08.609Z,5.63
2019-05-11T17:58:38.071Z,5.00
2019-05-11T18:01:09.383Z,5.40
2019-05-11T18:03:38.807Z,4.93
2019-05-11T18:06:08.621Z,8.63
2019-05-11T18:08:37.914Z,5.07
2019-05-11T18:11:08.381Z,7.10
2019-05-11T18:13:38.970Z,5.43
2019-05-11T18:16:08.639Z,6.47
2019-05-11T18:18:38.000Z,9.63
2019-05-11T18:21:08.481Z,7.90
2019-05-11T18:23:38.701Z,8.67
2019-05-11T18:26:08.807Z,8.30
2019-05-11T18:28:38.273Z,10.13
2019-05-11T18:31:07.461Z,8.47
2019-05-11T18:33:38.182Z,14.57
2019-05-11T18:36:08.102Z,8.13
2019-05-11T18:38:38.109Z,8.80
2019-05-11T18:41:07.529Z,9.60
2019-05-11T18:43:37.774Z,9.40
2019-05-11T18:46:08.494Z,8.93
2019-05-11T18:48:38.152Z,10.70
2019-05-11T18:51:08.646Z,11.97
2019-05-11T18:53:38.137Z,13.10
2019-05-11T18:56:08.794Z,11.10
2019-05-11T18:58:38.484Z,9.97
2019-05-11T19:01:07.938Z,12.17
2019-05-11T19:03:38.457Z,12.53
2019-05-11T19:06:08.893Z,10.57
2019-05-11T19:08:38.634Z,10.10
2019-05-11T19:11:09.148Z,11.30
2019-05-11T19:13:38.828Z,10.23
2019-05-11T19:16:10.278Z,11.67
2019-05-11T19:18:42.341Z,11.60
2019-05-11T19:21:13.973Z,10.87
2019-05-11T19:23:43.354Z,11.07
2019-05-11T19:26:12.730Z,10.30
2019-05-11T19:28:42.101Z,9.97
2019-05-11T19:31:11.441Z,12.13
2019-05-11T19:33:40.745Z,10.53
2019-05-11T19:36:10.010Z,10.40
2019-05-11T19:38:39.269Z,13.27
2019-05-11T19:41:08.531Z,12.80
2019-05-11T19:43:38.165Z,13.93
2019-05-11T19:46:08.858Z,11.20
2019-05-11T19:48:38.564Z,11.77
2019-05-11T19:51:11.697Z,14.13
2019-05-11T19:53:39.109Z,10.30
2019-05-11T19:56:08.378Z,12.53
2019-05-11T19:58:38.171Z,13.57
2019-05-11T20:01:08.721Z,14.67
2019-05-11T20:03:38.149Z,15.23
2019-05-11T20:06:08.807Z,13.40
2019-05-11T20:08:38.310Z,13.63
2019-05-11T20:11:08.227Z,11.43
2019-05-11T20:13:38.798Z,14.37
2019-05-11T20:16:08.398Z,17.97
2019-05-11T20:18:37.710Z,15.53
2019-05-11T20:21:16.755Z,16.43
2019-05-11T20:23:38.059Z,15.37
2019-05-11T20:26:08.874Z,15.50
2019-05-11T20:28:38.377Z,15.57
2019-05-11T20:31:08.132Z,16.37
2019-05-11T20:33:38.488Z,14.97
2019-05-11T20:36:08.628Z,18.17
2019-05-11T20:38:38.482Z,16.33
2019-05-11T20:41:08.321Z,16.73
2019-05-11T20:43:37.897Z,18.27
2019-05-11T20:46:08.209Z,16.20
2019-05-11T20:48:38.252Z,16.03
2019-05-11T20:51:08.207Z,17.23
2019-05-11T20:53:38.717Z,18.30
2019-05-11T20:56:08.681Z,20.00
2019-05-11T20:58:59.472Z,20.20
2019-05-11T21:01:28.737Z,24.83
2019-05-11T21:03:58.734Z,22.00
2019-05-11T21:06:29.415Z,20.43
2019-05-11T21:08:59.146Z,26.60
2019-05-11T21:11:28.438Z,23.70
2019-05-11T21:13:57.742Z,20.13
2019-05-11T21:16:27.147Z,23.37
2019-05-11T21:18:57.975Z,19.77
2019-05-11T21:21:27.882Z,21.73
2019-05-11T21:23:58.502Z,19.97
2019-05-11T21:26:28.239Z,17.80
2019-05-11T21:28:58.059Z,16.43
2019-05-11T21:31:29.122Z,23.67
2019-05-11T21:33:58.630Z,14.83
2019-05-11T21:36:28.364Z,15.07
2019-05-11T21:38:58.732Z,13.27
2019-05-11T21:41:30.967Z,17.20
2019-05-11T21:43:59.298Z,18.07
2019-05-11T21:46:28.617Z,15.17
2019-05-11T21:48:58.359Z,15.27
2019-05-11T21:51:28.610Z,16.20
2019-05-11T21:53:58.122Z,13.90
2019-05-11T21:56:28.858Z,12.83
2019-05-11T21:58:58.349Z,15.20
2019-05-11T22:01:28.282Z,15.10
2019-05-11T22:03:59.539Z,13.17
2019-05-11T22:06:30.539Z,14.33
2019-05-11T22:08:59.770Z,13.57
2019-05-11T22:11:29.112Z,13.23
2019-05-11T22:13:58.444Z,12.17
2019-05-11T22:16:29.830Z,13.10
2019-05-11T22:18:58.721Z,12.27
2019-05-11T22:21:28.176Z,12.83
2019-05-11T22:23:58.529Z,12.53
2019-05-11T22:26:28.677Z,14.70
2019-05-11T22:28:58.085Z,13.73
2019-05-11T22:31:28.032Z,12.33
2019-05-11T22:33:58.359Z,14.93
2019-05-11T22:36:28.335Z,13.80
2019-05-11T22:38:58.788Z,19.50
2019-05-11T22:41:28.301Z,14.33
2019-05-11T22:43:57.605Z,13.13
2019-05-11T22:46:28.045Z,14.07
2019-05-11T22:48:58.260Z,16.03
2019-05-11T22:51:28.807Z,14.60
2019-05-11T22:53:59.190Z,14.00
2019-05-11T22:56:28.746Z,15.00
2019-05-11T22:58:58.688Z,14.37
2019-05-11T23:01:28.330Z,16.20
2019-05-11T23:03:58.345Z,16.67
2019-05-11T23:06:27.945Z,17.07
2019-05-11T23:08:58.688Z,17.53
2019-05-11T23:11:28.599Z,16.43
2019-05-11T23:13:58.033Z,15.60
2019-05-11T23:16:28.550Z,17.27
2019-05-11T23:18:58.165Z,15.57
2019-05-11T23:21:29.932Z,17.03
2019-05-11T23:23:58.456Z,12.73
2019-05-11T23:26:28.281Z,17.60
2019-05-11T23:28:58.060Z,13.17
2019-05-11T23:31:27.972Z,13.57
2019-05-11T23:33:57.995Z,14.50
2019-05-11T23:36:28.200Z,17.20
2019-05-11T23:38:58.530Z,12.13
2019-05-11T23:41:28.754Z,13.27
2019-05-11T23:43:58.529Z,13.67
2019-05-11T23:46:28.551Z,13.67
2019-05-11T23:48:58.239Z,12.07
2019-05-11T23:51:28.343Z,14.47
2019-05-11T23:53:58.853Z,12.93
2019-05-11T23:56:28.366Z,14.47
2019-05-11T23:58:57.970Z,12.20
